createdAt,value
2023-04-19T00:00:14.766Z,8.34
2023-04-19T00:02:42.935Z,8.35
2023-04-19T00:05:12.222Z,8.32
2023-04-19T00:07:39.144Z,8.34
2023-04-19T00:10:07.300Z,8.35
2023-04-19T00:12:34.058Z,8.36
2023-04-19T00:15:00.983Z,8.36
2023-04-19T00:17:28.086Z,8.32
2023-04-19T00:19:54.849Z,8.35
2023-04-19T00:22:21.912Z,8.38
2023-04-19T00:24:48.684Z,8.36
2023-04-19T00:27:15.471Z,8.36
2023-04-19T00:29:42.229Z,8.33
2023-04-19T00:32:09.777Z,8.42
2023-04-19T00:34:37.074Z,8.33
2023-04-19T00:37:07.103Z,8.40
2023-04-19T00:39:33.926Z,8.44
2023-04-19T00:42:01.528Z,8.36
2023-04-19T00:44:28.467Z,8.38
2023-04-19T00:46:57.244Z,8.35
2023-04-19T00:49:25.031Z,8.40
2023-04-19T00:51:54.834Z,8.44
2023-04-19T00:54:22.003Z,8.40
2023-04-19T00:56:48.755Z,8.37
2023-04-19T00:59:16.727Z,8.38
2023-04-19T01:01:43.504Z,8.39
2023-04-19T01:04:10.627Z,8.41
2023-04-19T01:06:40.528Z,8.37
2023-04-19T01:09:07.315Z,8.39
2023-04-19T01:11:34.576Z,8.38
2023-04-19T01:14:10.412Z,8.40
2023-04-19T01:16:37.226Z,8.40
2023-04-19T01:19:04.080Z,8.43
2023-04-19T01:21:32.877Z,8.38
2023-04-19T01:23:59.764Z,8.43
2023-04-19T01:26:26.609Z,8.37
2023-04-19T01:28:53.673Z,8.39
2023-04-19T01:31:20.557Z,8.40
2023-04-19T01:33:47.628Z,8.39
2023-04-19T01:36:14.482Z,8.39
2023-04-19T01:38:41.256Z,8.29
2023-04-19T01:41:08.246Z,8.34
2023-04-19T01:43:35.069Z,8.37
2023-04-19T01:46:02.291Z,8.31
2023-04-19T01:48:29.165Z,8.34
2023-04-19T01:50:56.024Z,8.28
2023-04-19T01:53:22.860Z,8.22
2023-04-19T01:55:50.018Z,8.22
2023-04-19T01:58:16.750Z,8.15
2023-04-19T02:00:43.717Z,8.10
2023-04-19T02:03:10.674Z,8.12
2023-04-19T02:05:40.289Z,8.07
2023-04-19T02:08:07.024Z,8.11
2023-04-19T02:10:33.841Z,8.09
2023-04-19T02:13:00.706Z,8.10
2023-04-19T02:15:27.525Z,8.02
2023-04-19T02:17:54.432Z,7.95
2023-04-19T02:20:21.321Z,7.95
2023-04-19T02:22:48.344Z,7.91
2023-04-19T02:25:16.850Z,7.88
2023-04-19T02:27:43.659Z,7.86
2023-04-19T02:30:11.804Z,7.82
2023-04-19T02:32:39.084Z,7.79
2023-04-19T02:35:06.697Z,7.82
2023-04-19T02:37:33.419Z,7.92
2023-04-19T02:40:00.191Z,7.90
2023-04-19T02:42:26.980Z,7.96
2023-04-19T02:44:53.731Z,7.93
2023-04-19T02:47:21.216Z,7.95
2023-04-19T02:49:48.131Z,8.02
2023-04-19T02:52:14.940Z,8.04
2023-04-19T02:54:41.695Z,8.16
2023-04-19T02:57:08.469Z,8.07
2023-04-19T02:59:35.303Z,8.10
2023-04-19T03:02:02.250Z,8.12
2023-04-19T03:04:29.335Z,8.12
2023-04-19T03:06:56.167Z,8.16
2023-04-19T03:09:22.916Z,8.17
2023-04-19T03:11:49.666Z,8.18
2023-04-19T03:14:16.677Z,8.23
2023-04-19T03:16:43.688Z,8.29
2023-04-19T03:19:10.765Z,8.34
2023-04-19T03:21:37.573Z,8.35
2023-04-19T03:24:04.446Z,8.24
2023-04-19T03:26:31.711Z,8.28
2023-04-19T03:28:58.549Z,8.30
2023-04-19T03:31:25.465Z,8.32
2023-04-19T03:33:52.394Z,8.31
2023-04-19T03:36:19.246Z,8.32
2023-04-19T03:38:46.226Z,8.30
2023-04-19T03:41:24.273Z,8.32
2023-04-19T03:43:51.113Z,8.38
2023-04-19T03:46:18.081Z,8.34
2023-04-19T03:48:44.943Z,8.41
2023-04-19T03:51:16.273Z,8.43
2023-04-19T03:53:43.067Z,8.40
2023-04-19T03:56:10.105Z,8.48
2023-04-19T03:58:37.751Z,8.40
2023-04-19T04:01:04.607Z,8.46
2023-04-19T04:03:31.714Z,8.53
2023-04-19T04:05:59.282Z,8.54
2023-04-19T04:08:26.172Z,8.53
2023-04-19T04:10:55.011Z,8.49
2023-04-19T04:13:21.791Z,8.50
2023-04-19T04:15:48.946Z,8.49
2023-04-19T04:18:16.542Z,8.49
2023-04-19T04:20:44.423Z,8.58
2023-04-19T04:23:11.286Z,8.54
2023-04-19T04:25:39.441Z,8.49
2023-04-19T04:28:07.173Z,8.45
2023-04-19T04:30:36.418Z,8.48
2023-04-19T04:33:03.469Z,8.48
2023-04-19T04:35:31.186Z,8.46
2023-04-19T04:37:58.167Z,8.48
2023-04-19T04:40:25.007Z,8.49
2023-04-19T04:42:53.235Z,8.56
2023-04-19T04:45:20.259Z,8.54
2023-04-19T04:47:47.282Z,8.53
2023-04-19T04:50:14.548Z,8.66
2023-04-19T04:52:41.556Z,8.69
2023-04-19T04:55:09.030Z,8.57
2023-04-19T04:57:35.857Z,8.67
2023-04-19T05:00:03.016Z,8.70
2023-04-19T05:02:29.920Z,8.76
2023-04-19T05:04:57.122Z,8.80
2023-04-19T05:07:24.011Z,8.74
2023-04-19T05:09:50.875Z,8.88
2023-04-19T05:12:17.779Z,8.83
2023-04-19T05:14:44.530Z,8.97
2023-04-19T05:17:11.273Z,9.11
2023-04-19T05:19:38.303Z,8.98
2023-04-19T05:22:05.453Z,8.86
2023-04-19T05:24:32.225Z,8.82
2023-04-19T05:27:02.299Z,9.07
2023-04-19T05:29:29.083Z,8.97
2023-04-19T05:31:56.093Z,8.96
2023-04-19T05:34:23.095Z,8.95
2023-04-19T05:36:50.141Z,9.02
2023-04-19T05:39:17.635Z,8.99
2023-04-19T05:41:46.875Z,9.17
2023-04-19T05:44:14.233Z,9.16
2023-04-19T05:46:41.291Z,9.14
2023-04-19T05:49:08.098Z,9.14
2023-04-19T05:51:35.048Z,9.19
2023-04-19T05:54:01.992Z,9.28
2023-04-19T05:56:28.925Z,9.25
2023-04-19T05:58:56.568Z,9.39
2023-04-19T06:01:24.590Z,9.54
2023-04-19T06:03:53.847Z,9.73
2023-04-19T06:06:23.063Z,9.54
2023-04-19T06:08:51.544Z,9.54
2023-04-19T06:11:26.544Z,9.34
2023-04-19T06:13:55.933Z,9.38
2023-04-19T06:16:22.819Z,9.39
2023-04-19T06:18:49.568Z,9.43
2023-04-19T06:21:16.450Z,9.37
2023-04-19T06:23:43.185Z,9.37
2023-04-19T06:26:09.939Z,9.45
2023-04-19T06:28:36.668Z,9.43
2023-04-19T06:31:03.697Z,9.42
2023-04-19T06:33:30.554Z,9.41
2023-04-19T06:35:57.279Z,9.29
2023-04-19T06:38:24.053Z,9.33
2023-04-19T06:40:50.758Z,9.46
2023-04-19T06:43:17.554Z,9.57
2023-04-19T06:45:44.353Z,9.50
2023-04-19T06:48:11.265Z,9.44
2023-04-19T06:50:38.049Z,9.52
2023-04-19T06:53:05.129Z,9.46
2023-04-19T06:55:31.940Z,9.39
2023-04-19T06:57:58.771Z,9.29
2023-04-19T07:00:25.599Z,9.36
2023-04-19T07:02:52.682Z,9.44
2023-04-19T07:05:19.725Z,9.41
2023-04-19T07:07:46.505Z,9.44
2023-04-19T07:10:13.246Z,9.67
2023-04-19T07:12:40.110Z,9.67
2023-04-19T07:15:07.469Z,9.78
2023-04-19T07:17:36.248Z,9.73
2023-04-19T07:20:05.057Z,10.07
2023-04-19T07:22:31.877Z,10.22
2023-04-19T07:24:58.847Z,9.98
2023-04-19T07:27:25.996Z,9.75
2023-04-19T07:29:53.521Z,9.95
2023-04-19T07:32:21.144Z,9.95
2023-04-19T07:34:52.021Z,9.76
2023-04-19T07:37:18.822Z,9.82
2023-04-19T07:39:45.958Z,9.84
2023-04-19T07:42:12.690Z,10.02
2023-04-19T07:44:39.437Z,9.61
2023-04-19T07:47:06.453Z,9.54
2023-04-19T07:49:34.561Z,9.86
2023-04-19T07:52:02.138Z,9.64
2023-04-19T07:54:29.231Z,9.62
2023-04-19T07:56:57.813Z,9.98
2023-04-19T07:59:24.755Z,9.70
2023-04-19T08:01:51.622Z,9.80
2023-04-19T08:04:21.073Z,10.00
2023-04-19T08:06:48.358Z,9.83
2023-04-19T08:09:15.166Z,9.92
2023-04-19T08:11:43.364Z,9.90
2023-04-19T08:14:18.684Z,9.94
2023-04-19T08:17:22.245Z,10.08
2023-04-19T08:19:43.898Z,10.18
2023-04-19T08:22:10.933Z,10.11
2023-04-19T08:24:37.669Z,10.09
2023-04-19T08:27:04.478Z,10.21
2023-04-19T08:29:31.307Z,10.32
2023-04-19T08:31:58.128Z,10.05
2023-04-19T08:34:24.987Z,10.30
2023-04-19T08:37:03.379Z,10.05
2023-04-19T08:39:33.677Z,10.07
2023-04-19T08:42:12.550Z,10.21
2023-04-19T08:45:05.611Z,10.31
2023-04-19T08:47:34.870Z,10.31
2023-04-19T08:50:17.543Z,10.23
2023-04-19T08:52:58.655Z,10.20
2023-04-19T08:55:28.700Z,10.30
2023-04-19T08:57:57.264Z,10.45
2023-04-19T09:00:24.351Z,10.32
2023-04-19T09:02:53.675Z,10.38
2023-04-19T09:05:21.155Z,10.30
2023-04-19T09:07:48.597Z,10.27
2023-04-19T09:10:17.584Z,10.64
2023-04-19T09:13:01.270Z,10.80
2023-04-19T09:15:42.156Z,10.56
2023-04-19T09:18:10.408Z,10.68
2023-04-19T09:20:42.088Z,10.50
2023-04-19T09:23:12.834Z,10.72
2023-04-19T09:26:05.909Z,11.26
2023-04-19T09:28:28.907Z,11.00
2023-04-19T09:31:06.712Z,10.96
2023-04-19T09:33:42.421Z,10.95
2023-04-19T09:36:09.652Z,10.95
2023-04-19T09:38:49.532Z,11.15
2023-04-19T09:41:20.184Z,11.25
2023-04-19T09:44:05.401Z,11.03
2023-04-19T09:46:36.723Z,10.91
2023-04-19T09:49:27.246Z,11.01
2023-04-19T09:51:57.986Z,11.16
2023-04-19T09:54:28.899Z,11.37
2023-04-19T09:56:57.892Z,10.97
2023-04-19T09:59:25.901Z,11.38
2023-04-19T10:01:56.737Z,11.36
2023-04-19T10:04:29.385Z,11.48
2023-04-19T10:07:29.296Z,11.41
2023-04-19T10:10:05.059Z,11.41
2023-04-19T10:13:07.008Z,11.53
2023-04-19T10:15:33.853Z,11.63
2023-04-19T10:18:10.740Z,12.47
2023-04-19T10:20:49.919Z,12.37
2023-04-19T10:23:17.914Z,12.40
2023-04-19T10:25:48.520Z,11.80
2023-04-19T10:28:18.518Z,12.18
2023-04-19T10:30:56.557Z,12.27
2023-04-19T10:33:28.165Z,12.38
2023-04-19T10:36:02.232Z,12.51
2023-04-19T10:38:43.561Z,13.52
2023-04-19T10:41:17.377Z,14.17
2023-04-19T10:44:11.708Z,13.25
2023-04-19T10:46:40.906Z,13.55
2023-04-19T10:49:09.967Z,13.35
2023-04-19T10:51:43.544Z,14.09
2023-04-19T10:54:31.824Z,13.21
2023-04-19T10:57:02.430Z,12.97
2023-04-19T10:59:37.183Z,13.33
2023-04-19T11:02:26.543Z,14.36
2023-04-19T11:04:53.445Z,14.16
2023-04-19T11:07:21.566Z,13.44
2023-04-19T11:09:49.997Z,13.93
2023-04-19T11:12:18.522Z,14.82
2023-04-19T11:14:48.365Z,13.70
2023-04-19T11:17:28.280Z,14.17
2023-04-19T11:19:57.241Z,15.30
2023-04-19T11:22:34.616Z,14.25
2023-04-19T11:25:21.340Z,14.02
2023-04-19T11:27:51.423Z,14.87
2023-04-19T11:30:21.756Z,15.43
2023-04-19T11:32:56.965Z,15.78
2023-04-19T11:35:26.471Z,15.27
2023-04-19T11:37:54.226Z,15.05
2023-04-19T11:40:22.790Z,14.76
2023-04-19T11:42:57.788Z,14.70
2023-04-19T11:45:39.145Z,14.82
2023-04-19T11:48:16.558Z,14.44
2023-04-19T11:50:44.752Z,14.97
2023-04-19T11:53:17.148Z,15.55
2023-04-19T11:55:49.177Z,16.41
2023-04-19T11:58:51.644Z,16.36
2023-04-19T12:01:21.173Z,16.02
2023-04-19T12:03:55.893Z,15.63
2023-04-19T12:06:27.166Z,16.40
2023-04-19T12:08:55.785Z,15.85
2023-04-19T12:11:27.172Z,15.75
2023-04-19T12:14:14.930Z,15.97
2023-04-19T12:16:42.505Z,16.32
2023-04-19T12:19:18.340Z,16.04
2023-04-19T12:21:46.916Z,16.05
2023-04-19T12:24:16.229Z,15.97
2023-04-19T12:26:57.264Z,16.41
2023-04-19T12:29:24.529Z,17.51
2023-04-19T12:31:51.911Z,16.81
2023-04-19T12:34:18.882Z,16.03
2023-04-19T12:36:46.162Z,16.83
2023-04-19T12:39:14.253Z,16.80
2023-04-19T12:41:41.269Z,16.07
2023-04-19T12:44:08.030Z,16.15
2023-04-19T12:46:34.867Z,16.43
2023-04-19T12:49:01.659Z,17.41
2023-04-19T12:51:28.586Z,16.96
2023-04-19T12:53:55.753Z,16.75
2023-04-19T12:56:22.625Z,16.15
2023-04-19T12:58:49.495Z,17.20
2023-04-19T13:01:16.729Z,16.76
2023-04-19T13:03:43.683Z,16.08
2023-04-19T13:06:13.764Z,15.55
2023-04-19T13:08:45.517Z,16.31
2023-04-19T13:11:14.590Z,17.60
2023-04-19T13:13:41.425Z,17.68
2023-04-19T13:16:08.427Z,17.68
2023-04-19T13:18:35.671Z,17.50
2023-04-19T13:21:05.538Z,17.49
2023-04-19T13:23:34.159Z,16.73
2023-04-19T13:26:01.404Z,17.01
2023-04-19T13:28:28.140Z,16.95
2023-04-19T13:30:55.021Z,15.60
2023-04-19T13:33:21.922Z,16.75
2023-04-19T13:35:48.697Z,16.64
2023-04-19T13:38:18.318Z,16.85
2023-04-19T13:40:45.567Z,17.21
2023-04-19T13:43:12.349Z,17.11
2023-04-19T13:45:39.061Z,16.91
2023-04-19T13:48:06.488Z,16.90
2023-04-19T13:50:33.427Z,16.04
2023-04-19T13:53:00.475Z,15.95
2023-04-19T13:55:27.646Z,16.05
2023-04-19T13:57:54.476Z,17.39
2023-04-19T14:00:21.774Z,16.43
2023-04-19T14:02:50.775Z,16.16
2023-04-19T14:05:18.979Z,16.82
2023-04-19T14:07:45.768Z,16.09
2023-04-19T14:10:12.635Z,16.33
2023-04-19T14:12:39.470Z,16.94
2023-04-19T14:15:06.638Z,17.14
2023-04-19T14:17:33.536Z,15.73
2023-04-19T14:20:00.356Z,15.27
2023-04-19T14:22:27.101Z,16.16
2023-04-19T14:24:53.866Z,16.91
2023-04-19T14:27:21.319Z,17.13
2023-04-19T14:29:48.206Z,17.30
2023-04-19T14:34:45.319Z,16.46
2023-04-19T14:37:12.538Z,15.66
2023-04-19T14:39:39.294Z,15.53
2023-04-19T14:42:06.736Z,14.86
2023-04-19T14:44:35.204Z,14.64
2023-04-19T14:47:02.652Z,15.14
2023-04-19T14:49:29.728Z,16.26
2023-04-19T14:51:56.469Z,16.95
2023-04-19T14:54:23.281Z,16.83
2023-04-19T14:56:50.363Z,16.59
2023-04-19T14:59:17.389Z,16.48
2023-04-19T15:01:44.413Z,16.04
2023-04-19T15:04:11.447Z,16.61
2023-04-19T15:06:38.492Z,17.45
2023-04-19T15:09:05.578Z,16.70
2023-04-19T15:11:32.640Z,16.51
2023-04-19T15:13:59.379Z,16.99
2023-04-19T15:16:26.304Z,17.29
2023-04-19T15:18:53.068Z,16.76
2023-04-19T15:21:23.635Z,16.72
2023-04-19T15:23:51.385Z,15.55
2023-04-19T15:26:18.193Z,14.96
2023-04-19T15:28:45.040Z,15.98
2023-04-19T15:31:12.000Z,16.20
2023-04-19T15:33:39.320Z,15.96
2023-04-19T15:36:06.540Z,15.68
2023-04-19T15:38:33.699Z,15.34
2023-04-19T15:41:01.862Z,15.80
2023-04-19T15:43:28.657Z,16.30
2023-04-19T15:45:55.806Z,16.90
2023-04-19T15:48:22.656Z,15.46
2023-04-19T15:50:49.567Z,16.00
2023-04-19T15:53:16.648Z,16.37
2023-04-19T15:55:43.514Z,16.12
2023-04-19T15:58:10.407Z,15.03
2023-04-19T16:00:37.254Z,14.94
2023-04-19T16:03:04.619Z,15.69
2023-04-19T16:05:31.979Z,17.12
2023-04-19T16:08:07.026Z,16.30
2023-04-19T16:10:34.429Z,15.55
2023-04-19T16:13:01.618Z,15.38
2023-04-19T16:15:29.060Z,16.54
2023-04-19T16:17:55.943Z,14.71
2023-04-19T16:20:23.173Z,15.28
2023-04-19T16:22:50.129Z,15.38
2023-04-19T16:25:17.269Z,15.62
2023-04-19T16:27:46.512Z,16.53
2023-04-19T16:30:14.676Z,15.99
2023-04-19T16:32:42.384Z,15.46
2023-04-19T16:35:15.767Z,15.74
2023-04-19T16:37:45.552Z,15.62
2023-04-19T16:40:14.076Z,15.18
2023-04-19T16:42:41.068Z,15.60
2023-04-19T16:45:09.337Z,15.75
2023-04-19T16:47:36.937Z,15.96
2023-04-19T16:50:04.974Z,16.35
2023-04-19T16:52:33.206Z,15.08
2023-04-19T16:55:00.399Z,15.36
2023-04-19T16:57:27.434Z,15.62
2023-04-19T16:59:54.589Z,16.16
2023-04-19T17:02:21.547Z,15.07
2023-04-19T17:04:50.320Z,15.43
2023-04-19T17:07:17.340Z,14.88
2023-04-19T17:09:44.145Z,14.83
2023-04-19T17:12:11.120Z,15.79
2023-04-19T17:14:40.147Z,15.08
2023-04-19T17:17:07.423Z,15.71
2023-04-19T17:19:34.322Z,15.33
2023-04-19T17:22:05.781Z,15.11
2023-04-19T17:24:33.922Z,14.88
2023-04-19T17:27:01.276Z,15.77
2023-04-19T17:29:28.267Z,14.05
2023-04-19T17:31:56.330Z,14.30
2023-04-19T17:34:23.352Z,13.51
2023-04-19T17:36:50.332Z,12.02
2023-04-19T17:39:18.753Z,11.50
2023-04-19T17:41:45.985Z,11.22
2023-04-19T17:44:12.915Z,11.22
2023-04-19T17:46:40.776Z,10.97
2023-04-19T17:49:09.324Z,10.85
2023-04-19T17:51:36.164Z,10.72
2023-04-19T17:54:03.353Z,10.74
2023-04-19T17:56:30.318Z,10.47
2023-04-19T17:59:00.944Z,10.40
2023-04-19T18:01:27.810Z,10.23
2023-04-19T18:03:54.715Z,10.01
2023-04-19T18:06:22.221Z,9.91
2023-04-19T18:08:49.019Z,9.82
2023-04-19T18:11:18.374Z,9.77
2023-04-19T18:13:45.568Z,9.69
2023-04-19T18:16:17.473Z,9.63
2023-04-19T18:18:44.225Z,9.49
2023-04-19T18:21:11.007Z,9.43
2023-04-19T18:23:39.675Z,9.38
2023-04-19T18:26:06.775Z,9.34
2023-04-19T18:28:35.837Z,9.27
2023-04-19T18:31:02.832Z,9.11
2023-04-19T18:33:29.714Z,9.10
2023-04-19T18:35:56.719Z,9.01
2023-04-19T18:38:23.991Z,8.93
2023-04-19T18:40:50.862Z,8.88
2023-04-19T18:43:17.680Z,8.81
2023-04-19T18:45:44.576Z,8.76
2023-04-19T18:48:11.512Z,8.73
2023-04-19T18:50:38.686Z,8.69
2023-04-19T18:53:05.670Z,8.57
2023-04-19T18:55:33.423Z,8.56
2023-04-19T18:58:01.283Z,8.48
2023-04-19T19:00:28.385Z,8.37
2023-04-19T19:02:55.787Z,8.31
2023-04-19T19:05:22.850Z,8.23
2023-04-19T19:07:49.963Z,8.11
2023-04-19T19:10:20.973Z,8.14
2023-04-19T19:12:49.788Z,8.10
2023-04-19T19:15:17.063Z,8.00
2023-04-19T19:17:49.461Z,7.89
2023-04-19T19:20:17.665Z,7.74
2023-04-19T19:22:45.912Z,7.81
2023-04-19T19:25:13.441Z,7.77
2023-04-19T19:27:40.657Z,7.69
2023-04-19T19:30:08.607Z,7.60
2023-04-19T19:32:35.582Z,7.60
2023-04-19T19:35:06.360Z,7.61
2023-04-19T19:37:35.865Z,7.42
2023-04-19T19:40:05.233Z,7.41
2023-04-19T19:42:41.993Z,7.40
2023-04-19T19:45:09.595Z,7.46
2023-04-19T19:47:43.393Z,7.36
2023-04-19T19:51:01.012Z,7.36
2023-04-19T19:53:01.833Z,7.23
2023-04-19T19:55:29.160Z,7.29
2023-04-19T20:02:56.946Z,7.16
2023-04-19T20:05:24.615Z,7.17
2023-04-19T20:10:25.036Z,7.11
2023-04-19T20:12:52.316Z,7.18
2023-04-19T20:15:19.072Z,7.17
2023-04-19T20:17:46.113Z,7.06
2023-04-19T20:20:13.174Z,7.16
2023-04-19T20:22:40.760Z,7.25
2023-04-19T20:25:12.540Z,7.24
2023-04-19T20:27:39.465Z,7.25
2023-04-19T20:30:08.465Z,7.20
2023-04-19T20:32:36.769Z,7.31
2023-04-19T20:35:09.614Z,7.18
2023-04-19T20:37:40.327Z,7.13
2023-04-19T20:40:11.308Z,7.09
2023-04-19T20:42:38.526Z,7.04
2023-04-19T20:45:07.108Z,6.97
2023-04-19T20:47:34.067Z,7.00
2023-04-19T20:50:00.822Z,6.88
2023-04-19T20:52:27.973Z,6.79
2023-04-19T20:54:56.560Z,6.56
2023-04-19T20:57:23.424Z,6.51
2023-04-19T20:59:51.193Z,6.46
2023-04-19T21:02:18.291Z,6.44
2023-04-19T21:04:45.151Z,6.50
2023-04-19T21:07:11.877Z,6.41
2023-04-19T21:09:39.435Z,6.69
2023-04-19T21:12:06.317Z,6.48
2023-04-19T21:14:34.205Z,6.33
2023-04-19T21:17:03.086Z,5.96
2023-04-19T21:19:30.825Z,6.00
2023-04-19T21:21:58.849Z,5.84
2023-04-19T21:24:25.650Z,5.72
2023-04-19T21:26:52.444Z,5.63
2023-04-19T21:29:20.052Z,5.70
2023-04-19T21:31:47.385Z,5.41
2023-04-19T21:34:14.246Z,5.45
2023-04-19T21:36:41.121Z,5.27
2023-04-19T21:39:08.530Z,5.52
2023-04-19T21:41:36.229Z,5.57
2023-04-19T21:44:03.123Z,5.39
2023-04-19T21:46:30.024Z,5.51
2023-04-19T21:48:56.892Z,5.46
2023-04-19T21:51:23.909Z,5.40
2023-04-19T21:53:50.775Z,5.26
2023-04-19T21:56:20.450Z,5.28
2023-04-19T21:58:47.641Z,5.26
2023-04-19T22:01:14.455Z,5.16
2023-04-19T22:03:41.429Z,5.50
2023-04-19T22:06:08.758Z,5.51
2023-04-19T22:08:38.770Z,5.13
2023-04-19T22:11:06.242Z,5.06
2023-04-19T22:13:33.731Z,4.83
2023-04-19T22:16:02.588Z,4.90
2023-04-19T22:18:29.498Z,5.02
2023-04-19T22:20:56.356Z,4.96
2023-04-19T22:23:23.263Z,5.07
2023-04-19T22:25:50.249Z,5.00
2023-04-19T22:28:17.161Z,4.98
2023-04-19T22:30:44.007Z,4.86
2023-04-19T22:33:11.033Z,4.78
2023-04-19T22:35:37.849Z,4.77
2023-04-19T22:38:04.627Z,4.73
2023-04-19T22:40:31.340Z,4.73
2023-04-19T22:42:58.287Z,4.59
2023-04-19T22:45:25.072Z,4.60
2023-04-19T22:47:51.910Z,4.59
2023-04-19T22:50:19.013Z,4.75
2023-04-19T22:52:45.916Z,4.84
2023-04-19T22:55:12.864Z,4.75
2023-04-19T22:57:39.706Z,4.70
2023-04-19T23:00:10.853Z,4.81
2023-04-19T23:02:38.796Z,4.81
2023-04-19T23:05:06.782Z,4.81
2023-04-19T23:07:33.924Z,4.75
2023-04-19T23:10:01.274Z,4.75
2023-04-19T23:12:31.236Z,4.77
2023-04-19T23:14:58.716Z,4.64
2023-04-19T23:17:25.798Z,4.61
2023-04-19T23:19:52.593Z,4.71
2023-04-19T23:22:19.404Z,4.72
2023-04-19T23:24:46.159Z,4.74
2023-04-19T23:27:13.050Z,4.73
2023-04-19T23:29:40.070Z,4.71
2023-04-19T23:32:06.848Z,4.73
2023-04-19T23:34:33.712Z,4.77
2023-04-19T23:37:00.566Z,4.74
2023-04-19T23:39:27.600Z,4.80
2023-04-19T23:41:54.439Z,4.71
2023-04-19T23:44:21.735Z,4.76
2023-04-19T23:46:48.938Z,4.80
2023-04-19T23:49:16.058Z,4.74
2023-04-19T23:51:43.497Z,4.68
2023-04-19T23:54:10.345Z,4.53
2023-04-19T23:56:37.112Z,4.55
2023-04-19T23:59:03.918Z,4.47
